sensor_id;sensor_type;location;lat;lon;timestamp;pressure;altitude;pressure_sealevel;temperature;humidity
10064;BME280;5071;52.360;13.134;2023-06-26T00:00:50;101093.94;;;17.35;100.00
10064;BME280;5071;52.360;13.134;2023-06-26T00:05:52;101091.38;;;17.30;100.00
10064;BME280;5071;52.360;13.134;2023-06-26T00:10:54;101096.88;;;17.27;100.00
10064;BME280;5071;52.360;13.134;2023-06-26T00:15:57;101096.09;;;17.23;100.00
10064;BME280;5071;52.360;13.134;2023-06-26T00:21:00;101081.91;;;17.20;100.00
10064;BME280;5071;52.360;13.134;2023-06-26T00:26:02;101085.75;;;17.13;100.00
10064;BME280;5071;52.360;13.134;2023-06-26T00:31:06;101075.91;;;17.12;100.00
10064;BME280;5071;52.360;13.134;2023-06-26T00:36:08;101081.59;;;17.02;100.00
10064;BME280;5071;52.360;13.134;2023-06-26T00:41:10;101086.25;;;16.97;100.00
10064;BME280;5071;52.360;13.134;2023-06-26T00:46:13;101080.22;;;16.90;100.00
10064;BME280;5071;52.360;13.134;2023-06-26T00:51:16;101079.38;;;16.88;100.00
10064;BME280;5071;52.360;13.134;2023-06-26T00:56:19;101074.31;;;16.79;100.00
10064;BME280;5071;52.360;13.134;2023-06-26T01:01:23;101067.28;;;16.75;100.00
10064;BME280;5071;52.360;13.134;2023-06-26T01:06:25;101070.13;;;16.70;100.00
10064;BME280;5071;52.360;13.134;2023-06-26T01:11:29;101064.09;;;16.64;100.00
10064;BME280;5071;52.360;13.134;2023-06-26T01:16:32;101061.44;;;16.62;100.00
10064;BME280;5071;52.360;13.134;2023-06-26T01:21:40;101060.72;;;16.57;100.00
10064;BME280;5071;52.360;13.134;2023-06-26T01:26:45;101049.47;;;16.46;100.00
10064;BME280;5071;52.360;13.134;2023-06-26T01:31:48;101046.91;;;16.43;100.00
10064;BME280;5071;52.360;13.134;2023-06-26T01:36:51;101037.38;;;16.32;100.00
10064;BME280;5071;52.360;13.134;2023-06-26T01:41:54;101032.91;;;16.33;100.00
10064;BME280;5071;52.360;13.134;2023-06-26T01:47:01;101039.34;;;16.27;100.00
10064;BME280;5071;52.360;13.134;2023-06-26T01:52:08;101036.00;;;16.19;100.00
10064;BME280;5071;52.360;13.134;2023-06-26T01:57:12;101030.78;;;16.16;100.00
10064;BME280;5071;52.360;13.134;2023-06-26T02:02:14;101032.72;;;16.11;100.00
10064;BME280;5071;52.360;13.134;2023-06-26T02:07:17;101020.22;;;16.10;100.00
10064;BME280;5071;52.360;13.134;2023-06-26T02:12:20;101014.78;;;16.13;100.00
10064;BME280;5071;52.360;13.134;2023-06-26T02:17:22;101015.06;;;16.04;100.00
10064;BME280;5071;52.360;13.134;2023-06-26T02:22:24;101025.97;;;15.98;100.00
10064;BME280;5071;52.360;13.134;2023-06-26T02:27:27;101013.69;;;15.90;100.00
10064;BME280;5071;52.360;13.134;2023-06-26T02:32:29;101017.28;;;15.89;100.00
10064;BME280;5071;52.360;13.134;2023-06-26T02:37:31;101015.53;;;15.88;100.00
10064;BME280;5071;52.360;13.134;2023-06-26T02:42:34;101005.63;;;15.92;100.00
10064;BME280;5071;52.360;13.134;2023-06-26T02:47:37;101013.22;;;16.06;100.00
10064;BME280;5071;52.360;13.134;2023-06-26T02:52:39;101000.78;;;16.05;100.00
10064;BME280;5071;52.360;13.134;2023-06-26T02:57:42;100996.25;;;16.07;100.00
10064;BME280;5071;52.360;13.134;2023-06-26T03:02:44;100993.31;;;16.15;100.00
10064;BME280;5071;52.360;13.134;2023-06-26T03:07:46;100992.25;;;16.20;100.00
10064;BME280;5071;52.360;13.134;2023-06-26T03:12:49;100987.47;;;16.30;100.00
10064;BME280;5071;52.360;13.134;2023-06-26T03:17:51;100990.63;;;16.43;100.00
10064;BME280;5071;52.360;13.134;2023-06-26T03:22:53;100986.81;;;16.50;100.00
10064;BME280;5071;52.360;13.134;2023-06-26T03:27:56;100985.88;;;16.51;100.00
10064;BME280;5071;52.360;13.134;2023-06-26T03:32:58;100977.75;;;16.54;100.00
10064;BME280;5071;52.360;13.134;2023-06-26T03:38:01;100976.75;;;16.57;100.00
10064;BME280;5071;52.360;13.134;2023-06-26T03:43:04;100973.25;;;16.55;100.00
10064;BME280;5071;52.360;13.134;2023-06-26T03:48:06;100971.13;;;16.64;100.00
10064;BME280;5071;52.360;13.134;2023-06-26T03:53:08;100977.22;;;16.69;100.00
10064;BME280;5071;52.360;13.134;2023-06-26T03:58:12;100980.41;;;16.81;100.00
10064;BME280;5071;52.360;13.134;2023-06-26T04:03:13;100977.59;;;16.85;100.00
10064;BME280;5071;52.360;13.134;2023-06-26T04:08:15;100987.44;;;16.85;100.00
10064;BME280;5071;52.360;13.134;2023-06-26T04:13:19;100973.69;;;16.96;100.00
10064;BME280;5071;52.360;13.134;2023-06-26T04:18:21;100967.75;;;17.11;100.00
10064;BME280;5071;52.360;13.134;2023-06-26T04:23:23;100957.38;;;17.27;100.00
10064;BME280;5071;52.360;13.134;2023-06-26T04:28:26;100962.31;;;17.38;100.00
10064;BME280;5071;52.360;13.134;2023-06-26T04:33:29;100966.09;;;17.57;100.00
10064;BME280;5071;52.360;13.134;2023-06-26T04:38:32;100961.31;;;18.55;100.00
10064;BME280;5071;52.360;13.134;2023-06-26T04:43:35;100974.09;;;20.48;100.00
10064;BME280;5071;52.360;13.134;2023-06-26T04:48:37;100974.53;;;22.72;83.20
10064;BME280;5071;52.360;13.134;2023-06-26T04:53:39;100975.47;;;24.03;71.74
10064;BME280;5071;52.360;13.134;2023-06-26T04:58:43;100972.03;;;25.09;67.88
10064;BME280;5071;52.360;13.134;2023-06-26T05:03:45;100968.47;;;25.72;66.11
10064;BME280;5071;52.360;13.134;2023-06-26T05:08:47;100961.69;;;26.52;62.38
10064;BME280;5071;52.360;13.134;2023-06-26T05:13:50;100973.16;;;26.92;61.11
10064;BME280;5071;52.360;13.134;2023-06-26T05:18:52;100967.44;;;26.36;58.70
10064;BME280;5071;52.360;13.134;2023-06-26T05:23:56;100959.09;;;26.26;60.37
10064;BME280;5071;52.360;13.134;2023-06-26T05:29:00;100959.38;;;28.08;57.72
10064;BME280;5071;52.360;13.134;2023-06-26T05:34:03;100957.66;;;29.04;50.85
10064;BME280;5071;52.360;13.134;2023-06-26T05:39:05;100948.59;;;29.25;53.27
10064;BME280;5071;52.360;13.134;2023-06-26T05:44:08;100942.16;;;31.34;49.44
10064;BME280;5071;52.360;13.134;2023-06-26T05:49:10;100944.47;;;29.71;47.65
10064;BME280;5071;52.360;13.134;2023-06-26T05:54:16;100928.63;;;29.96;47.54
10064;BME280;5071;52.360;13.134;2023-06-26T05:59:20;100930.44;;;30.75;45.24
10064;BME280;5071;52.360;13.134;2023-06-26T06:04:22;100917.16;;;32.02;45.86
10064;BME280;5071;52.360;13.134;2023-06-26T06:09:24;100919.97;;;32.38;43.96
10064;BME280;5071;52.360;13.134;2023-06-26T06:14:27;100917.66;;;32.87;44.75
10064;BME280;5071;52.360;13.134;2023-06-26T06:19:29;100911.53;;;30.62;45.26
10064;BME280;5071;52.360;13.134;2023-06-26T06:24:31;100928.75;;;31.21;46.30
10064;BME280;5071;52.360;13.134;2023-06-26T06:29:34;100921.72;;;29.61;48.80
10064;BME280;5071;52.360;13.134;2023-06-26T06:34:36;100914.59;;;28.97;50.09
10064;BME280;5071;52.360;13.134;2023-06-26T06:39:38;100904.84;;;30.06;47.43
10064;BME280;5071;52.360;13.134;2023-06-26T06:44:41;100911.69;;;31.47;44.22
10064;BME280;5071;52.360;13.134;2023-06-26T06:49:43;100917.72;;;33.82;41.41
10064;BME280;5071;52.360;13.134;2023-06-26T06:54:52;100919.97;;;32.74;41.37
10064;BME280;5071;52.360;13.134;2023-06-26T06:59:55;100917.84;;;33.64;41.30
10064;BME280;5071;52.360;13.134;2023-06-26T07:04:57;100911.88;;;34.85;40.86
10064;BME280;5071;52.360;13.134;2023-06-26T07:10:00;100898.69;;;32.04;44.04
10064;BME280;5071;52.360;13.134;2023-06-26T07:15:04;100892.16;;;30.05;46.79
10064;BME280;5071;52.360;13.134;2023-06-26T07:20:08;100899.38;;;31.78;44.98
10064;BME280;5071;52.360;13.134;2023-06-26T07:25:11;100899.59;;;31.67;43.16
10064;BME280;5071;52.360;13.134;2023-06-26T07:30:14;100895.16;;;31.84;42.52
10064;BME280;5071;52.360;13.134;2023-06-26T07:35:17;100891.94;;;32.97;41.69
10064;BME280;5071;52.360;13.134;2023-06-26T07:40:19;100880.81;;;31.25;42.82
10064;BME280;5071;52.360;13.134;2023-06-26T07:45:23;100872.91;;;31.60;43.24
10064;BME280;5071;52.360;13.134;2023-06-26T07:50:27;100873.63;;;32.07;42.82
10064;BME280;5071;52.360;13.134;2023-06-26T07:55:30;100861.81;;;31.79;41.97
10064;BME280;5071;52.360;13.134;2023-06-26T08:00:33;100868.59;;;33.01;39.56
10064;BME280;5071;52.360;13.134;2023-06-26T08:05:36;100869.53;;;32.83;38.71
10064;BME280;5071;52.360;13.134;2023-06-26T08:10:38;100858.94;;;32.52;40.29
10064;BME280;5071;52.360;13.134;2023-06-26T08:15:42;100851.75;;;33.73;39.03
10064;BME280;5071;52.360;13.134;2023-06-26T08:20:45;100856.94;;;33.07;40.88
10064;BME280;5071;52.360;13.134;2023-06-26T08:25:48;100861.09;;;33.88;36.99
10064;BME280;5071;52.360;13.134;2023-06-26T08:30:51;100852.00;;;33.96;36.43
10064;BME280;5071;52.360;13.134;2023-06-26T08:35:53;100846.25;;;33.73;36.67
10064;BME280;5071;52.360;13.134;2023-06-26T08:40:55;100846.19;;;33.56;34.71
10064;BME280;5071;52.360;13.134;2023-06-26T08:45:58;100830.34;;;34.42;33.56
10064;BME280;5071;52.360;13.134;2023-06-26T08:51:01;100838.03;;;35.91;32.49
10064;BME280;5071;52.360;13.134;2023-06-26T08:56:07;100829.34;;;34.68;34.45
10064;BME280;5071;52.360;13.134;2023-06-26T09:01:12;100828.63;;;35.38;34.54
10064;BME280;5071;52.360;13.134;2023-06-26T09:06:14;100829.31;;;36.49;30.88
10064;BME280;5071;52.360;13.134;2023-06-26T09:11:17;100833.03;;;36.18;32.57
10064;BME280;5071;52.360;13.134;2023-06-26T09:16:25;100822.22;;;36.31;31.63
10064;BME280;5071;52.360;13.134;2023-06-26T09:21:27;100820.53;;;36.83;33.29
10064;BME280;5071;52.360;13.134;2023-06-26T09:26:29;100814.34;;;36.58;30.63
10064;BME280;5071;52.360;13.134;2023-06-26T09:31:35;100806.75;;;34.80;31.13
10064;BME280;5071;52.360;13.134;2023-06-26T09:36:43;100807.94;;;36.95;30.14
10064;BME280;5071;52.360;13.134;2023-06-26T09:41:45;100798.59;;;37.99;28.40
10064;BME280;5071;52.360;13.134;2023-06-26T09:46:49;100788.31;;;37.57;29.19
10064;BME280;5071;52.360;13.134;2023-06-26T09:51:51;100793.56;;;38.31;28.87
10064;BME280;5071;52.360;13.134;2023-06-26T09:56:55;100781.47;;;36.63;29.52
10064;BME280;5071;52.360;13.134;2023-06-26T10:02:00;100774.41;;;37.35;28.17
10064;BME280;5071;52.360;13.134;2023-06-26T10:07:04;100772.09;;;36.34;29.24
10064;BME280;5071;52.360;13.134;2023-06-26T10:12:11;100763.75;;;37.02;28.74
10064;BME280;5071;52.360;13.134;2023-06-26T10:17:19;100752.97;;;39.15;25.61
10064;BME280;5071;52.360;13.134;2023-06-26T10:22:22;100757.63;;;37.95;27.70
10064;BME280;5071;52.360;13.134;2023-06-26T10:27:29;100743.75;;;37.37;27.95
10064;BME280;5071;52.360;13.134;2023-06-26T10:32:36;100742.41;;;36.81;29.31
10064;BME280;5071;52.360;13.134;2023-06-26T10:37:42;100720.28;;;33.66;33.25
10064;BME280;5071;52.360;13.134;2023-06-26T10:42:45;100716.84;;;33.97;33.13
10064;BME280;5071;52.360;13.134;2023-06-26T10:47:52;100713.44;;;33.87;33.13
10064;BME280;5071;52.360;13.134;2023-06-26T10:53:08;100712.91;;;34.08;32.94
10064;BME280;5071;52.360;13.134;2023-06-26T10:58:30;100698.91;;;34.51;33.44
10064;BME280;5071;52.360;13.134;2023-06-26T11:03:36;100701.53;;;33.95;33.68
10064;BME280;5071;52.360;13.134;2023-06-26T11:08:49;100693.28;;;33.95;34.85
10064;BME280;5071;52.360;13.134;2023-06-26T11:13:51;100682.59;;;33.67;34.00
10064;BME280;5071;52.360;13.134;2023-06-26T11:18:58;100680.72;;;33.76;35.48
10064;BME280;5071;52.360;13.134;2023-06-26T11:24:01;100670.56;;;33.01;37.03
10064;BME280;5071;52.360;13.134;2023-06-26T11:29:04;100670.06;;;33.64;36.67
10064;BME280;5071;52.360;13.134;2023-06-26T11:34:09;100668.47;;;34.27;35.87
10064;BME280;5071;52.360;13.134;2023-06-26T11:39:11;100648.66;;;34.16;34.57
10064;BME280;5071;52.360;13.134;2023-06-26T11:44:13;100652.06;;;34.42;34.47
10064;BME280;5071;52.360;13.134;2023-06-26T11:49:17;100636.16;;;33.72;34.11
10064;BME280;5071;52.360;13.134;2023-06-26T11:54:23;100632.53;;;33.72;34.36
10064;BME280;5071;52.360;13.134;2023-06-26T11:59:34;100627.72;;;33.90;34.79
10064;BME280;5071;52.360;13.134;2023-06-26T12:04:41;100613.22;;;34.21;34.95
10064;BME280;5071;52.360;13.134;2023-06-26T12:09:46;100612.44;;;34.43;34.98
10064;BME280;5071;52.360;13.134;2023-06-26T12:14:48;100602.94;;;34.54;34.68
10064;BME280;5071;52.360;13.134;2023-06-26T12:19:52;100596.41;;;33.42;36.17
10064;BME280;5071;52.360;13.134;2023-06-26T12:24:56;100586.06;;;33.85;34.73
10064;BME280;5071;52.360;13.134;2023-06-26T12:29:58;100567.88;;;34.63;35.17
10064;BME280;5071;52.360;13.134;2023-06-26T12:35:02;100577.16;;;34.78;34.14
10064;BME280;5071;52.360;13.134;2023-06-26T12:40:09;100574.00;;;35.13;34.15
10064;BME280;5071;52.360;13.134;2023-06-26T12:45:17;100567.16;;;33.33;34.86
10064;BME280;5071;52.360;13.134;2023-06-26T12:50:23;100555.06;;;32.42;37.28
10064;BME280;5071;52.360;13.134;2023-06-26T12:55:25;100537.34;;;32.02;38.95
10064;BME280;5071;52.360;13.134;2023-06-26T13:00:27;100538.94;;;33.14;35.80
10064;BME280;5071;52.360;13.134;2023-06-26T13:05:31;100534.41;;;34.43;35.62
10064;BME280;5071;52.360;13.134;2023-06-26T13:10:33;100525.16;;;32.89;36.20
10064;BME280;5071;52.360;13.134;2023-06-26T13:15:35;100514.50;;;33.52;34.55
10064;BME280;5071;52.360;13.134;2023-06-26T13:20:39;100500.59;;;34.18;33.50
10064;BME280;5071;52.360;13.134;2023-06-26T13:25:42;100483.25;;;34.40;33.12
10064;BME280;5071;52.360;13.134;2023-06-26T13:30:44;100478.81;;;34.62;33.95
10064;BME280;5071;52.360;13.134;2023-06-26T13:35:47;100455.16;;;34.45;34.45
10064;BME280;5071;52.360;13.134;2023-06-26T13:40:50;100439.28;;;33.84;33.34
10064;BME280;5071;52.360;13.134;2023-06-26T13:45:52;100416.81;;;33.48;34.21
10064;BME280;5071;52.360;13.134;2023-06-26T13:50:56;100397.41;;;33.89;35.41
10064;BME280;5071;52.360;13.134;2023-06-26T13:55:58;100398.66;;;32.89;36.84
10064;BME280;5071;52.360;13.134;2023-06-26T14:01:00;100403.59;;;31.86;38.49
10064;BME280;5071;52.360;13.134;2023-06-26T14:06:04;100420.41;;;31.22;38.91
10064;BME280;5071;52.360;13.134;2023-06-26T14:11:06;100559.63;;;30.09;44.86
10064;BME280;5071;52.360;13.134;2023-06-26T14:16:08;100588.47;;;26.77;58.92
10064;BME280;5071;52.360;13.134;2023-06-26T14:21:11;100578.69;;;24.16;78.96
10064;BME280;5071;52.360;13.134;2023-06-26T14:26:14;100607.56;;;22.69;89.46
10064;BME280;5071;52.360;13.134;2023-06-26T14:31:16;100611.66;;;21.60;98.86
10064;BME280;5071;52.360;13.134;2023-06-26T14:36:19;100601.53;;;21.33;99.24
10064;BME280;5071;52.360;13.134;2023-06-26T14:41:21;100613.63;;;21.12;98.62
10064;BME280;5071;52.360;13.134;2023-06-26T14:46:23;100613.22;;;20.88;96.29
10064;BME280;5071;52.360;13.134;2023-06-26T14:51:27;100594.41;;;20.86;95.26
10064;BME280;5071;52.360;13.134;2023-06-26T14:56:29;100645.41;;;20.75;96.77
10064;BME280;5071;52.360;13.134;2023-06-26T15:01:30;100659.69;;;20.77;96.65
10064;BME280;5071;52.360;13.134;2023-06-26T15:06:34;100678.66;;;20.91;97.70
10064;BME280;5071;52.360;13.134;2023-06-26T15:11:36;100704.44;;;21.29;96.07
10064;BME280;5071;52.360;13.134;2023-06-26T15:16:38;100711.81;;;21.41;93.65
10064;BME280;5071;52.360;13.134;2023-06-26T15:21:41;100730.28;;;21.33;94.96
10064;BME280;5071;52.360;13.134;2023-06-26T15:26:43;100740.47;;;21.44;97.22
10064;BME280;5071;52.360;13.134;2023-06-26T15:31:45;100737.00;;;21.58;96.04
10064;BME280;5071;52.360;13.134;2023-06-26T15:36:49;100748.50;;;21.45;97.62
10064;BME280;5071;52.360;13.134;2023-06-26T15:41:51;100740.22;;;21.48;98.10
10064;BME280;5071;52.360;13.134;2023-06-26T15:46:53;100719.94;;;21.57;95.61
10064;BME280;5071;52.360;13.134;2023-06-26T15:51:57;100716.91;;;21.78;94.84
10064;BME280;5071;52.360;13.134;2023-06-26T15:56:58;100738.44;;;22.09;90.41
10064;BME280;5071;52.360;13.134;2023-06-26T16:02:00;100728.28;;;22.43;88.21
10064;BME280;5071;52.360;13.134;2023-06-26T16:07:04;100719.97;;;22.61;88.67
10064;BME280;5071;52.360;13.134;2023-06-26T16:12:06;100725.00;;;22.52;89.55
10064;BME280;5071;52.360;13.134;2023-06-26T16:17:08;100716.00;;;22.52;87.06
10064;BME280;5071;52.360;13.134;2023-06-26T16:22:12;100729.34;;;22.10;88.25
10064;BME280;5071;52.360;13.134;2023-06-26T16:27:13;100725.56;;;21.99;87.95
10064;BME280;5071;52.360;13.134;2023-06-26T16:32:15;100722.50;;;21.74;87.71
10064;BME280;5071;52.360;13.134;2023-06-26T16:37:19;100713.28;;;21.63;87.97
10064;BME280;5071;52.360;13.134;2023-06-26T16:42:21;100725.50;;;21.54;89.55
10064;BME280;5071;52.360;13.134;2023-06-26T16:47:23;100731.91;;;21.67;88.41
10064;BME280;5071;52.360;13.134;2023-06-26T16:52:27;100743.97;;;21.92;86.64
10064;BME280;5071;52.360;13.134;2023-06-26T16:57:29;100735.72;;;22.24;87.48
10064;BME280;5071;52.360;13.134;2023-06-26T17:02:32;100734.63;;;22.42;87.03
10064;BME280;5071;52.360;13.134;2023-06-26T17:07:36;100737.75;;;22.65;84.82
10064;BME280;5071;52.360;13.134;2023-06-26T17:12:39;100755.16;;;23.04;82.21
10064;BME280;5071;52.360;13.134;2023-06-26T17:17:41;100766.34;;;23.12;81.22
10064;BME280;5071;52.360;13.134;2023-06-26T17:22:44;100766.34;;;22.83;82.33
10064;BME280;5071;52.360;13.134;2023-06-26T17:27:46;100762.59;;;22.71;82.64
10064;BME280;5071;52.360;13.134;2023-06-26T17:32:48;100774.28;;;22.86;81.38
10064;BME280;5071;52.360;13.134;2023-06-26T17:37:52;100779.28;;;22.78;81.64
10064;BME280;5071;52.360;13.134;2023-06-26T17:42:54;100781.81;;;22.67;82.00
10064;BME280;5071;52.360;13.134;2023-06-26T17:47:56;100794.53;;;22.36;82.92
10064;BME280;5071;52.360;13.134;2023-06-26T17:53:00;100798.81;;;22.24;82.46
10064;BME280;5071;52.360;13.134;2023-06-26T17:58:02;100804.88;;;22.13;82.72
10064;BME280;5071;52.360;13.134;2023-06-26T18:03:03;100810.72;;;22.06;83.13
10064;BME280;5071;52.360;13.134;2023-06-26T18:08:07;100802.72;;;22.04;83.89
10064;BME280;5071;52.360;13.134;2023-06-26T18:13:09;100816.22;;;22.04;83.44
10064;BME280;5071;52.360;13.134;2023-06-26T18:18:10;100823.34;;;22.05;83.71
10064;BME280;5071;52.360;13.134;2023-06-26T18:23:14;100822.34;;;21.92;83.82
10064;BME280;5071;52.360;13.134;2023-06-26T18:28:17;100824.47;;;21.87;84.50
10064;BME280;5071;52.360;13.134;2023-06-26T18:33:20;100833.69;;;21.83;84.59
10064;BME280;5071;52.360;13.134;2023-06-26T18:38:24;100821.53;;;21.76;85.18
10064;BME280;5071;52.360;13.134;2023-06-26T18:43:26;100830.72;;;21.71;82.94
10064;BME280;5071;52.360;13.134;2023-06-26T18:48:29;100843.84;;;21.79;81.16
10064;BME280;5071;52.360;13.134;2023-06-26T18:53:32;100843.66;;;21.66;77.17
10064;BME280;5071;52.360;13.134;2023-06-26T18:58:35;100851.50;;;21.55;74.40
10064;BME280;5071;52.360;13.134;2023-06-26T19:03:37;100856.72;;;21.58;71.04
10064;BME280;5071;52.360;13.134;2023-06-26T19:08:40;100869.44;;;21.56;69.28
10064;BME280;5071;52.360;13.134;2023-06-26T19:13:42;100880.50;;;21.51;68.33
10064;BME280;5071;52.360;13.134;2023-06-26T19:18:44;100873.75;;;21.43;66.72
10064;BME280;5071;52.360;13.134;2023-06-26T19:23:48;100889.84;;;21.28;65.97
10064;BME280;5071;52.360;13.134;2023-06-26T19:28:50;100894.94;;;21.17;66.42
10064;BME280;5071;52.360;13.134;2023-06-26T19:33:52;100894.94;;;21.17;64.42
10064;BME280;5071;52.360;13.134;2023-06-26T19:38:55;100894.09;;;21.16;64.80
10064;BME280;5071;52.360;13.134;2023-06-26T19:43:57;100895.22;;;21.12;64.81
10064;BME280;5071;52.360;13.134;2023-06-26T19:48:59;100893.38;;;21.13;63.86
10064;BME280;5071;52.360;13.134;2023-06-26T19:54:02;100902.31;;;20.97;64.74
10064;BME280;5071;52.360;13.134;2023-06-26T19:59:04;100907.69;;;20.97;64.91
10064;BME280;5071;52.360;13.134;2023-06-26T20:04:06;100909.94;;;20.89;65.34
10064;BME280;5071;52.360;13.134;2023-06-26T20:09:09;100911.03;;;20.85;65.35
10064;BME280;5071;52.360;13.134;2023-06-26T20:14:11;100918.34;;;20.83;64.45
10064;BME280;5071;52.360;13.134;2023-06-26T20:19:13;100922.88;;;20.83;63.58
10064;BME280;5071;52.360;13.134;2023-06-26T20:24:16;100917.41;;;20.84;65.08
10064;BME280;5071;52.360;13.134;2023-06-26T20:29:18;100915.66;;;20.66;65.22
10064;BME280;5071;52.360;13.134;2023-06-26T20:34:20;100923.69;;;20.67;62.27
10064;BME280;5071;52.360;13.134;2023-06-26T20:39:24;100928.50;;;20.61;60.72
10064;BME280;5071;52.360;13.134;2023-06-26T20:44:29;100937.13;;;20.50;61.14
10064;BME280;5071;52.360;13.134;2023-06-26T20:49:32;100941.94;;;20.43;61.06
10064;BME280;5071;52.360;13.134;2023-06-26T20:54:36;100932.47;;;20.34;57.85
10064;BME280;5071;52.360;13.134;2023-06-26T20:59:39;100937.53;;;20.23;55.59
10064;BME280;5071;52.360;13.134;2023-06-26T21:04:41;100923.50;;;20.16;54.62
10064;BME280;5071;52.360;13.134;2023-06-26T21:09:45;100940.69;;;20.14;55.34
10064;BME280;5071;52.360;13.134;2023-06-26T21:14:46;100941.38;;;20.00;55.06
10064;BME280;5071;52.360;13.134;2023-06-26T21:19:48;100941.50;;;19.97;55.18
10064;BME280;5071;52.360;13.134;2023-06-26T21:24:51;100950.34;;;19.81;54.69
10064;BME280;5071;52.360;13.134;2023-06-26T21:29:53;100951.50;;;19.76;55.38
10064;BME280;5071;52.360;13.134;2023-06-26T21:34:55;100952.78;;;19.67;55.68
10064;BME280;5071;52.360;13.134;2023-06-26T21:39:58;100959.47;;;19.58;56.30
10064;BME280;5071;52.360;13.134;2023-06-26T21:45:00;100955.44;;;19.48;56.82
10064;BME280;5071;52.360;13.134;2023-06-26T21:50:03;100957.50;;;19.43;58.33
10064;BME280;5071;52.360;13.134;2023-06-26T21:55:07;100963.59;;;19.28;58.79
10064;BME280;5071;52.360;13.134;2023-06-26T22:00:10;100970.19;;;19.20;60.17
10064;BME280;5071;52.360;13.134;2023-06-26T22:05:12;100976.97;;;19.09;61.13
10064;BME280;5071;52.360;13.134;2023-06-26T22:10:15;100973.47;;;19.07;62.78
10064;BME280;5071;52.360;13.134;2023-06-26T22:15:17;100969.09;;;19.04;63.77
10064;BME280;5071;52.360;13.134;2023-06-26T22:20:20;100973.88;;;18.97;63.57
10064;BME280;5071;52.360;13.134;2023-06-26T22:25:24;100975.63;;;18.98;63.88
10064;BME280;5071;52.360;13.134;2023-06-26T22:30:26;100981.69;;;18.83;65.18
10064;BME280;5071;52.360;13.134;2023-06-26T22:35:28;100980.97;;;18.78;65.04
10064;BME280;5071;52.360;13.134;2023-06-26T22:40:32;100974.91;;;18.73;65.20
10064;BME280;5071;52.360;13.134;2023-06-26T22:45:34;100980.75;;;18.62;65.15
10064;BME280;5071;52.360;13.134;2023-06-26T22:50:35;100967.88;;;18.48;65.71
10064;BME280;5071;52.360;13.134;2023-06-26T22:55:39;100986.84;;;18.45;66.25
10064;BME280;5071;52.360;13.134;2023-06-26T23:00:41;100986.56;;;18.29;66.34
10064;BME280;5071;52.360;13.134;2023-06-26T23:05:43;100994.69;;;18.27;67.08
10064;BME280;5071;52.360;13.134;2023-06-26T23:10:48;100993.31;;;18.17;67.49
10064;BME280;5071;52.360;13.134;2023-06-26T23:15:51;100991.69;;;18.13;67.63
10064;BME280;5071;52.360;13.134;2023-06-26T23:20:53;100996.63;;;18.02;68.93
10064;BME280;5071;52.360;13.134;2023-06-26T23:25:57;101003.38;;;17.88;69.78
10064;BME280;5071;52.360;13.134;2023-06-26T23:30:59;101003.72;;;17.79;70.29
10064;BME280;5071;52.360;13.134;2023-06-26T23:36:01;101008.56;;;17.69;70.94
10064;BME280;5071;52.360;13.134;2023-06-26T23:41:05;101014.22;;;17.62;71.23
10064;BME280;5071;52.360;13.134;2023-06-26T23:46:07;101027.88;;;17.56;71.67
10064;BME280;5071;52.360;13.134;2023-06-26T23:51:09;101031.13;;;17.40;72.63
10064;BME280;5071;52.360;13.134;2023-06-26T23:56:12;101030.50;;;17.32;73.43
